Time;durP1;ratioP1;P1;durP2;ratioP2;P2;SDS_P1;SDS_P2;PMS_P1;PMS_P2;Temp;Humidity;BMP_temperature;BMP_pressure;BME280_temperature;BME280_humidity;BME280_pressure;Samples;Min_cycle;Max_cycle;Signal;HPM_P1;HPM_P2
2022/07/23 00:00:15;;;;;;;11.93;8.80;;;17.40;99.90;;;;;;5030800;28;20202;-33
2022/07/23 00:02:41;;;;;;;11.97;9.77;;;17.50;99.90;;;;;;5041968;28;20413;-34
2022/07/23 00:05:07;;;;;;;10.80;8.90;;;17.40;99.90;;;;;;5039439;28;20476;-34
2022/07/23 00:07:33;;;;;;;10.50;9.37;;;17.40;99.90;;;;;;5030766;28;20190;-34
2022/07/23 00:09:58;;;;;;;11.87;9.50;;;17.40;99.90;;;;;;5030225;28;20859;-33
2022/07/23 00:12:24;;;;;;;12.07;10.30;;;17.30;99.90;;;;;;5032686;28;20189;-34
2022/07/23 00:14:50;;;;;;;11.10;9.27;;;17.30;99.90;;;;;;5043341;28;20181;-33
2022/07/23 00:17:15;;;;;;;10.90;9.80;;;17.20;99.90;;;;;;5036141;28;20186;-33
2022/07/23 00:19:41;;;;;;;10.43;9.50;;;17.20;99.90;;;;;;5029935;28;20202;-34
2022/07/23 00:22:07;;;;;;;10.70;8.60;;;17.10;99.90;;;;;;5036829;28;20193;-34
2022/07/23 00:24:33;;;;;;;13.30;10.03;;;17.10;99.90;;;;;;5048504;28;20182;-33
2022/07/23 00:26:58;;;;;;;11.27;9.93;;;17.10;99.90;;;;;;5031883;28;20573;-34
2022/07/23 00:29:24;;;;;;;12.03;10.80;;;17.10;99.90;;;;;;5035149;28;20186;-34
2022/07/23 00:31:50;;;;;;;16.30;11.17;;;17.00;99.90;;;;;;5032525;28;20198;-34
2022/07/23 00:34:15;;;;;;;12.87;10.60;;;17.00;99.90;;;;;;5031161;28;20197;-34
2022/07/23 00:36:41;;;;;;;10.60;9.50;;;17.00;99.90;;;;;;5030495;28;20228;-33
2022/07/23 00:39:07;;;;;;;13.53;10.53;;;17.00;99.90;;;;;;5030936;28;20615;-33
2022/07/23 00:41:32;;;;;;;12.43;9.73;;;17.00;99.90;;;;;;5030993;28;20202;-33
2022/07/23 00:44:18;;;;;;;11.40;9.80;;;17.00;99.90;;;;;;5030999;28;20206;-33
2022/07/23 00:46:53;;;;;;;11.60;9.93;;;17.00;99.90;;;;;;5043719;28;20255;-33
2022/07/23 00:49:29;;;;;;;10.93;9.83;;;16.90;99.90;;;;;;5035261;28;20424;-34
2022/07/23 00:51:56;;;;;;;12.13;10.77;;;16.90;99.90;;;;;;5030796;28;20417;-33
2022/07/23 00:54:25;;;;;;;15.57;10.90;;;16.90;99.90;;;;;;5030438;28;20421;-33
2022/07/23 00:56:51;;;;;;;12.33;10.40;;;16.90;99.90;;;;;;5030089;28;21494;-34
2022/07/23 00:59:17;;;;;;;13.30;11.43;;;16.90;99.90;;;;;;5029173;28;21163;-34
2022/07/23 01:01:44;;;;;;;13.03;11.50;;;17.00;99.90;;;;;;5030718;28;20425;-34
2022/07/23 01:04:10;;;;;;;12.40;10.83;;;17.00;99.90;;;;;;5030416;28;20263;-33
2022/07/23 01:06:37;;;;;;;13.73;12.30;;;17.00;99.90;;;;;;5029846;28;20473;-33
2022/07/23 01:09:05;;;;;;;16.13;12.70;;;17.00;99.90;;;;;;5030175;28;20422;-33
2022/07/23 01:11:36;;;;;;;17.63;13.90;;;16.90;99.90;;;;;;5030087;28;20457;-34
2022/07/23 01:14:15;;;;;;;14.73;11.93;;;16.80;99.90;;;;;;5030275;28;20434;-34
2022/07/23 01:16:43;;;;;;;14.20;12.70;;;16.90;99.90;;;;;;5033320;28;20439;-34
2022/07/23 01:19:09;;;;;;;14.30;12.23;;;16.90;99.90;;;;;;5036837;28;20474;-34
2022/07/23 01:21:37;;;;;;;15.20;12.30;;;16.90;99.90;;;;;;5045827;28;20916;-33
2022/07/23 01:24:03;;;;;;;14.77;13.13;;;16.90;99.90;;;;;;5030032;28;20444;-34
2022/07/23 01:26:29;;;;;;;13.77;12.37;;;16.90;99.90;;;;;;5030216;28;20991;-33
2022/07/23 01:28:55;;;;;;;13.90;12.37;;;17.00;99.90;;;;;;5029839;28;20421;-34
2022/07/23 01:31:22;;;;;;;15.07;12.97;;;16.90;99.90;;;;;;5030249;28;20197;-34
2022/07/23 01:33:48;;;;;;;15.50;13.03;;;16.90;99.90;;;;;;5030218;28;20524;-33
2022/07/23 01:36:13;;;;;;;14.67;13.07;;;16.80;99.90;;;;;;5037046;28;21055;-34
2022/07/23 01:38:39;;;;;;;14.73;13.10;;;16.80;99.90;;;;;;5041431;28;20218;-34
2022/07/23 01:41:05;;;;;;;15.47;13.10;;;16.80;99.90;;;;;;5030076;28;20213;-33
2022/07/23 01:43:31;;;;;;;15.97;13.10;;;16.80;99.90;;;;;;5030249;28;20198;-34
2022/07/23 01:45:56;;;;;;;15.30;13.50;;;16.80;99.90;;;;;;5029922;28;20218;-34
2022/07/23 01:48:22;;;;;;;16.50;12.50;;;16.90;99.90;;;;;;5029493;28;20276;-34
2022/07/23 01:50:48;;;;;;;15.90;13.57;;;16.90;99.90;;;;;;5029838;28;20194;-34
2022/07/23 01:53:14;;;;;;;14.30;12.80;;;16.90;99.90;;;;;;5036879;28;20432;-33
2022/07/23 01:55:41;;;;;;;15.43;12.53;;;16.80;99.90;;;;;;5046748;28;20193;-34
2022/07/23 01:58:07;;;;;;;14.73;13.10;;;16.80;99.90;;;;;;5029434;28;20511;-34
2022/07/23 02:00:33;;;;;;;15.47;12.83;;;16.70;99.90;;;;;;5029798;28;20507;-34
2022/07/23 02:02:59;;;;;;;17.60;14.30;;;16.70;99.90;;;;;;5030027;28;20235;-33
2022/07/23 02:05:25;;;;;;;15.87;14.17;;;16.70;99.90;;;;;;5029596;28;20229;-33
2022/07/23 02:07:52;;;;;;;15.77;14.07;;;16.70;99.90;;;;;;5029753;28;20887;-34
2022/07/23 02:10:17;;;;;;;15.23;13.60;;;16.70;99.90;;;;;;5039568;28;20428;-33
2022/07/23 02:12:43;;;;;;;15.90;14.30;;;16.70;99.90;;;;;;5046323;28;20760;-34
2022/07/23 02:15:09;;;;;;;15.43;13.50;;;16.70;99.90;;;;;;5036086;28;20612;-33
2022/07/23 02:17:35;;;;;;;16.27;14.00;;;16.70;99.90;;;;;;5043730;28;20192;-34
2022/07/23 02:20:01;;;;;;;18.27;15.10;;;16.60;99.90;;;;;;5039062;28;20240;-33
2022/07/23 02:22:26;;;;;;;16.40;14.70;;;16.60;99.90;;;;;;5040284;28;20241;-34
2022/07/23 02:24:52;;;;;;;16.90;14.97;;;16.50;99.90;;;;;;5032205;28;20867;-33
2022/07/23 02:27:18;;;;;;;17.23;14.77;;;16.50;99.90;;;;;;5032865;28;20186;-34
2022/07/23 02:29:43;;;;;;;18.17;15.50;;;16.40;99.90;;;;;;5033593;28;20205;-33
2022/07/23 02:32:09;;;;;;;17.23;14.77;;;16.40;99.90;;;;;;5033346;28;20225;-34
2022/07/23 02:34:35;;;;;;;15.57;13.53;;;16.40;99.90;;;;;;5033272;28;20183;-33
2022/07/23 02:37:00;;;;;;;19.57;15.97;;;16.40;99.90;;;;;;5032496;28;20190;-34
2022/07/23 02:39:27;;;;;;;19.23;15.70;;;16.50;99.90;;;;;;5031880;28;20740;-34
2022/07/23 02:41:52;;;;;;;19.10;15.17;;;16.50;99.90;;;;;;5033335;28;20222;-34
2022/07/23 02:44:18;;;;;;;23.67;17.57;;;16.50;99.90;;;;;;5033263;28;20482;-34
2022/07/23 02:46:44;;;;;;;18.73;15.53;;;16.50;99.90;;;;;;5041165;28;20220;-34
2022/07/23 02:49:09;;;;;;;17.63;15.83;;;16.50;99.90;;;;;;5039200;28;20281;-34
2022/07/23 02:51:35;;;;;;;18.67;15.70;;;16.50;99.90;;;;;;5032847;28;20638;-34
2022/07/23 02:54:01;;;;;;;18.60;15.40;;;16.50;99.90;;;;;;5032972;28;20286;-34
2022/07/23 02:56:26;;;;;;;19.57;17.33;;;16.50;99.90;;;;;;5032943;28;20189;-33
2022/07/23 02:58:52;;;;;;;21.77;16.70;;;16.40;99.90;;;;;;5031079;28;20225;-33
2022/07/23 03:01:18;;;;;;;21.70;16.87;;;16.40;99.90;;;;;;5033093;28;20193;-34
2022/07/23 03:03:43;;;;;;;18.90;15.07;;;16.30;99.90;;;;;;5032839;28;20194;-34
2022/07/23 03:06:09;;;;;;;16.37;14.23;;;16.30;99.90;;;;;;5032435;28;20230;-34
2022/07/23 03:08:35;;;;;;;18.63;15.80;;;16.30;99.90;;;;;;5034164;28;20649;-33
2022/07/23 03:11:01;;;;;;;21.60;15.67;;;16.20;99.90;;;;;;5046731;28;20604;-34
2022/07/23 03:13:27;;;;;;;19.07;15.20;;;16.20;99.90;;;;;;5039434;28;20210;-34
2022/07/23 03:15:53;;;;;;;16.50;14.17;;;16.20;99.90;;;;;;5032655;28;20807;-34
2022/07/23 03:18:18;;;;;;;17.63;13.80;;;16.20;99.90;;;;;;5029224;28;20428;-34
2022/07/23 03:20:44;;;;;;;21.70;16.10;;;16.20;99.90;;;;;;5042321;28;20186;-33
2022/07/23 03:23:10;;;;;;;16.90;14.77;;;16.20;99.90;;;;;;5038248;28;20657;-34
2022/07/23 03:25:36;;;;;;;21.20;16.47;;;16.20;99.90;;;;;;5032390;28;20212;-33
2022/07/23 03:28:02;;;;;;;17.43;14.47;;;16.20;99.90;;;;;;5031734;28;20421;-33
2022/07/23 03:30:27;;;;;;;22.20;15.03;;;16.20;99.90;;;;;;5032496;28;20191;-33
2022/07/23 03:32:53;;;;;;;15.50;13.90;;;16.20;99.90;;;;;;5032445;28;20190;-34
2022/07/23 03:35:19;;;;;;;17.33;13.77;;;16.10;99.90;;;;;;5043147;28;20233;-34
2022/07/23 03:37:44;;;;;;;17.83;15.57;;;16.10;99.90;;;;;;5037830;28;20221;-34
2022/07/23 03:40:11;;;;;;;15.57;13.47;;;16.10;99.90;;;;;;5032091;28;20225;-33
2022/07/23 03:42:37;;;;;;;16.70;14.57;;;16.00;99.90;;;;;;5032223;28;20240;-34
2022/07/23 03:45:04;;;;;;;15.27;13.00;;;15.90;99.90;;;;;;5032065;28;20453;-34
2022/07/23 03:47:30;;;;;;;16.20;14.20;;;15.90;99.90;;;;;;5031429;28;20432;-34
2022/07/23 03:49:56;;;;;;;15.03;13.53;;;15.90;99.90;;;;;;5031414;28;20908;-34
2022/07/23 03:52:21;;;;;;;16.17;13.80;;;15.80;99.90;;;;;;5037319;28;20252;-33
2022/07/23 03:54:47;;;;;;;15.17;13.23;;;15.80;99.90;;;;;;5037491;28;20185;-33
2022/07/23 03:57:13;;;;;;;15.10;13.57;;;15.80;99.90;;;;;;5031391;28;20186;-34
2022/07/23 03:59:38;;;;;;;14.43;12.73;;;15.70;99.90;;;;;;5031662;28;20188;-33
2022/07/23 04:02:04;;;;;;;15.40;13.70;;;15.70;99.90;;;;;;5031797;28;20273;-34
2022/07/23 04:04:30;;;;;;;15.33;13.73;;;15.70;99.90;;;;;;5031437;28;20559;-34
2022/07/23 04:06:55;;;;;;;18.50;15.60;;;15.60;99.90;;;;;;5030856;28;20221;-33
2022/07/23 04:09:21;;;;;;;15.10;13.27;;;15.70;99.90;;;;;;5031714;28;20217;-33
2022/07/23 04:11:47;;;;;;;21.17;17.17;;;15.70;99.90;;;;;;5031600;28;20213;-34
2022/07/23 04:14:12;;;;;;;20.53;17.00;;;15.80;99.90;;;;;;5033758;28;20190;-34
2022/07/23 04:16:38;;;;;;;21.93;18.40;;;15.90;99.90;;;;;;5046918;28;20190;-34
2022/07/23 04:19:04;;;;;;;28.60;19.43;;;16.00;99.90;;;;;;5044288;28;20184;-34
2022/07/23 04:21:30;;;;;;;23.70;20.07;;;16.00;99.90;;;;;;5048871;28;20192;-33
2022/07/23 04:23:56;;;;;;;21.13;17.57;;;16.10;99.90;;;;;;5031572;28;20798;-33
2022/07/23 04:26:21;;;;;;;21.40;17.17;;;16.10;99.90;;;;;;5031251;28;20465;-34
2022/07/23 04:28:47;;;;;;;21.83;17.50;;;16.10;99.90;;;;;;5034866;28;20215;-34
2022/07/23 04:31:13;;;;;;;19.10;15.03;;;16.20;99.90;;;;;;5045508;28;20268;-33
2022/07/23 04:33:39;;;;;;;20.37;17.90;;;16.30;99.90;;;;;;5031215;28;20724;-33
2022/07/23 04:36:04;;;;;;;20.60;17.17;;;16.20;99.90;;;;;;5031101;28;20190;-34
2022/07/23 04:38:30;;;;;;;19.20;16.27;;;16.30;99.90;;;;;;5030747;28;20194;-33
2022/07/23 04:40:56;;;;;;;22.97;18.20;;;16.30;99.90;;;;;;5030880;28;20182;-34
2022/07/23 04:43:21;;;;;;;22.73;18.37;;;16.20;99.90;;;;;;5030931;28;20190;-34
2022/07/23 04:45:47;;;;;;;22.90;18.90;;;16.20;99.90;;;;;;5035200;28;20202;-33
2022/07/23 04:48:13;;;;;;;24.20;17.50;;;16.20;99.90;;;;;;5039559;28;20182;-34
2022/07/23 04:50:39;;;;;;;20.67;17.80;;;16.10;99.90;;;;;;5030789;28;20274;-34
2022/07/23 04:53:05;;;;;;;19.27;17.20;;;16.10;99.90;;;;;;5030793;28;20273;-33
2022/07/23 04:55:30;;;;;;;18.20;16.30;;;16.20;99.90;;;;;;5030869;28;20196;-34
2022/07/23 04:57:56;;;;;;;17.90;16.10;;;16.20;99.90;;;;;;5030042;28;20795;-34
2022/07/23 05:00:22;;;;;;;20.83;17.30;;;16.30;99.90;;;;;;5030639;28;20194;-34
2022/07/23 05:02:47;;;;;;;21.00;17.57;;;16.30;99.90;;;;;;5030334;28;20182;-34
2022/07/23 05:05:13;;;;;;;19.73;17.73;;;16.40;99.90;;;;;;5030691;28;20226;-34
2022/07/23 05:07:39;;;;;;;20.90;17.90;;;16.40;99.90;;;;;;5030053;28;20281;-33
2022/07/23 05:10:05;;;;;;;20.60;17.80;;;16.40;99.90;;;;;;5030614;28;20193;-34
2022/07/23 05:12:30;;;;;;;19.37;17.37;;;16.40;99.90;;;;;;5030389;28;20269;-34
2022/07/23 05:14:56;;;;;;;21.37;19.17;;;16.40;99.90;;;;;;5029198;28;20194;-34
2022/07/23 05:17:22;;;;;;;22.70;19.07;;;16.40;99.90;;;;;;5030002;28;20692;-33
2022/07/23 05:19:47;;;;;;;20.80;18.60;;;16.30;99.90;;;;;;5040741;28;20852;-33
2022/07/23 05:22:13;;;;;;;19.37;17.30;;;16.30;99.90;;;;;;5041722;28;20183;-33
2022/07/23 05:24:39;;;;;;;20.63;17.93;;;16.30;99.90;;;;;;5030189;28;20193;-33
2022/07/23 05:27:04;;;;;;;17.57;15.73;;;16.40;99.90;;;;;;5029473;28;20186;-33
2022/07/23 05:29:30;;;;;;;18.53;16.40;;;16.40;99.90;;;;;;5030288;28;20541;-34
2022/07/23 05:31:56;;;;;;;18.73;16.63;;;16.40;99.90;;;;;;5029710;28;20204;-34
2022/07/23 05:34:21;;;;;;;18.47;16.57;;;16.40;99.90;;;;;;5030425;28;20198;-34
2022/07/23 05:36:48;;;;;;;20.93;18.47;;;16.40;99.90;;;;;;5035697;28;20285;-34
2022/07/23 05:39:14;;;;;;;23.37;20.23;;;16.40;99.90;;;;;;5035721;28;20182;-34
2022/07/23 05:41:40;;;;;;;21.37;18.80;;;16.30;99.90;;;;;;5042893;28;20424;-33
2022/07/23 05:44:05;;;;;;;27.10;20.83;;;16.40;99.90;;;;;;5043654;28;20718;-33
2022/07/23 05:46:31;;;;;;;24.20;20.70;;;16.40;99.90;;;;;;5030663;28;20214;-33
2022/07/23 05:48:57;;;;;;;25.77;22.80;;;16.50;99.90;;;;;;5042450;28;20272;-33
2022/07/23 05:51:24;;;;;;;25.37;20.40;;;16.50;99.90;;;;;;5042349;28;20193;-33
2022/07/23 05:53:50;;;;;;;24.83;20.57;;;16.60;99.90;;;;;;5029842;28;20186;-33
2022/07/23 05:56:17;;;;;;;31.23;23.93;;;16.70;99.90;;;;;;5030050;28;20504;-33
2022/07/23 05:58:43;;;;;;;27.00;23.30;;;16.80;99.90;;;;;;5029904;28;20420;-33
2022/07/23 06:01:09;;;;;;;27.47;22.50;;;16.80;99.90;;;;;;5033848;28;20436;-34
2022/07/23 06:03:35;;;;;;;26.13;22.40;;;16.90;99.90;;;;;;5043115;28;20440;-34
2022/07/23 06:06:00;;;;;;;29.90;23.90;;;16.90;99.90;;;;;;5045699;28;20456;-34
2022/07/23 06:08:26;;;;;;;30.83;23.33;;;16.90;99.90;;;;;;5047525;28;20185;-34
2022/07/23 06:10:52;;;;;;;29.37;23.37;;;16.90;99.90;;;;;;5034515;28;20834;-34
2022/07/23 06:13:18;;;;;;;25.50;21.90;;;16.90;99.90;;;;;;5033826;28;20194;-34
2022/07/23 06:15:44;;;;;;;26.23;21.30;;;16.90;99.90;;;;;;5033424;28;20193;-34
2022/07/23 06:18:09;;;;;;;28.27;21.30;;;17.00;99.90;;;;;;5037425;28;20604;-34
2022/07/23 06:20:35;;;;;;;27.33;23.07;;;17.00;99.90;;;;;;5050186;28;20260;-34
2022/07/23 06:23:01;;;;;;;29.90;24.70;;;17.10;99.90;;;;;;5040890;28;20425;-34
2022/07/23 06:25:27;;;;;;;29.27;23.83;;;17.20;99.90;;;;;;5046469;28;20569;-34
2022/07/23 06:27:52;;;;;;;26.50;22.30;;;17.30;99.90;;;;;;5040494;28;20198;-34
2022/07/23 06:30:18;;;;;;;25.17;21.10;;;17.50;99.90;;;;;;5033175;28;20549;-34
2022/07/23 06:32:45;;;;;;;29.40;23.40;;;17.80;99.90;;;;;;5033422;28;20198;-34
2022/07/23 06:35:10;;;;;;;25.63;22.27;;;18.00;99.90;;;;;;5033308;28;20433;-33
2022/07/23 06:37:36;;;;;;;23.90;20.47;;;18.10;99.90;;;;;;5043670;28;20527;-34
2022/07/23 06:40:03;;;;;;;25.77;22.30;;;18.10;99.90;;;;;;5043672;28;20232;-34
2022/07/23 06:42:28;;;;;;;24.17;21.60;;;18.00;99.90;;;;;;5033306;28;20425;-34
2022/07/23 06:44:54;;;;;;;28.83;22.60;;;17.90;99.90;;;;;;5032735;28;20424;-34
2022/07/23 06:47:20;;;;;;;27.07;22.97;;;17.90;99.90;;;;;;5032627;28;20705;-34
2022/07/23 06:49:46;;;;;;;27.30;24.33;;;17.80;99.90;;;;;;5033053;28;20194;-34
2022/07/23 06:52:11;;;;;;;32.20;25.33;;;17.80;99.90;;;;;;5033083;28;20659;-34
2022/07/23 06:54:37;;;;;;;30.73;24.30;;;17.60;99.90;;;;;;5032968;28;20190;-34
2022/07/23 06:57:03;;;;;;;31.53;26.97;;;17.50;99.90;;;;;;5032261;28;20827;-34
2022/07/23 06:59:28;;;;;;;33.13;25.63;;;17.40;99.90;;;;;;5032748;28;20233;-34
2022/07/23 07:01:54;;;;;;;30.43;25.13;;;17.50;99.90;;;;;;5032832;28;20186;-34
2022/07/23 07:04:20;;;;;;;34.80;27.40;;;17.60;99.90;;;;;;5033828;28;20191;-34
2022/07/23 07:06:45;;;;;;;32.90;25.90;;;17.80;99.90;;;;;;5042093;28;20256;-34
2022/07/23 07:09:11;;;;;;;26.43;23.23;;;17.90;99.90;;;;;;5044529;28;20192;-34
2022/07/23 07:11:37;;;;;;;33.83;26.07;;;18.00;99.90;;;;;;5044590;28;20190;-34
2022/07/23 07:14:04;;;;;;;32.53;26.37;;;18.10;99.90;;;;;;5047610;28;20193;-34
2022/07/23 07:16:30;;;;;;;33.87;27.37;;;18.10;99.90;;;;;;5041119;28;20714;-33
2022/07/23 07:18:55;;;;;;;29.63;25.27;;;18.20;99.90;;;;;;5031444;28;20429;-33
2022/07/23 07:21:21;;;;;;;25.70;21.90;;;18.20;99.90;;;;;;5047141;28;20424;-33
2022/07/23 07:23:47;;;;;;;28.43;23.17;;;18.20;99.90;;;;;;5034555;28;20193;-34
2022/07/23 07:26:12;;;;;;;30.27;24.57;;;18.30;99.90;;;;;;5043182;28;20206;-34
2022/07/23 07:28:38;;;;;;;27.80;24.20;;;18.40;99.90;;;;;;5032564;28;20669;-34
2022/07/23 07:31:04;;;;;;;28.00;22.70;;;18.60;99.90;;;;;;5032303;28;20190;-34
2022/07/23 07:33:30;;;;;;;27.33;23.13;;;19.00;99.90;;;;;;5032415;28;20194;-33
2022/07/23 07:35:55;;;;;;;27.70;22.63;;;19.20;99.90;;;;;;5032284;28;20182;-34
2022/07/23 07:38:21;;;;;;;28.70;23.17;;;19.30;99.90;;;;;;5031423;28;20182;-34
2022/07/23 07:40:47;;;;;;;29.00;24.30;;;19.30;99.90;;;;;;5032359;28;20194;-34
2022/07/23 07:43:12;;;;;;;28.77;23.00;;;19.10;99.90;;;;;;5036587;28;20203;-34
2022/07/23 07:45:38;;;;;;;24.40;21.80;;;19.10;99.90;;;;;;5034130;28;20202;-34
2022/07/23 07:48:04;;;;;;;25.73;22.13;;;19.00;99.90;;;;;;5049327;28;20200;-34
2022/07/23 07:50:30;;;;;;;21.73;19.43;;;18.80;99.90;;;;;;5048579;28;20185;-34
2022/07/23 07:52:56;;;;;;;24.13;20.27;;;18.80;99.90;;;;;;5036768;28;20809;-34
2022/07/23 07:55:22;;;;;;;23.10;19.53;;;18.80;99.90;;;;;;5051929;28;20365;-34
2022/07/23 07:57:48;;;;;;;21.27;17.50;;;18.90;99.90;;;;;;5050879;28;20227;-34
2022/07/23 08:00:13;;;;;;;20.10;18.00;;;19.10;99.90;;;;;;5051814;28;20540;-34
2022/07/23 08:02:50;;;;;;;24.27;19.40;;;19.40;99.90;;;;;;5051770;28;20221;-34
2022/07/23 08:05:26;;;;;;;18.83;17.03;;;19.50;99.90;;;;;;5051558;28;20463;-34
2022/07/23 08:07:52;;;;;;;20.43;18.30;;;19.50;99.90;;;;;;5049102;28;21080;-34
2022/07/23 08:10:18;;;;;;;18.93;16.93;;;19.50;99.90;;;;;;5037252;28;20421;-34
2022/07/23 08:12:56;;;;;;;19.27;17.23;;;19.50;99.90;;;;;;5031517;28;20552;-34
2022/07/23 08:15:23;;;;;;;19.07;16.03;;;19.40;99.90;;;;;;5031510;28;20505;-34
2022/07/23 08:17:49;;;;;;;20.00;16.33;;;19.50;99.90;;;;;;5030861;28;20417;-34
2022/07/23 08:20:18;;;;;;;18.40;16.50;;;19.50;99.90;;;;;;5031131;28;20523;-34
2022/07/23 08:23:04;;;;;;;20.93;18.47;;;19.50;99.90;;;;;;5039872;28;21300;-34
2022/07/23 08:25:32;;;;;;;21.53;18.47;;;19.70;99.90;;;;;;5030992;28;20951;-34
2022/07/23 08:27:59;;;;;;;18.90;16.93;;;19.60;99.90;;;;;;5030618;28;20422;-34
2022/07/23 08:30:26;;;;;;;19.97;18.10;;;19.70;99.90;;;;;;5031366;28;20424;-34
2022/07/23 08:33:01;;;;;;;20.87;18.97;;;19.80;99.90;;;;;;5031262;28;20936;-34
2022/07/23 08:35:35;;;;;;;19.97;18.17;;;19.70;99.90;;;;;;5031253;28;20768;-34
2022/07/23 08:38:04;;;;;;;22.10;20.00;;;19.60;99.90;;;;;;5030677;28;20424;-34
2022/07/23 08:40:33;;;;;;;21.20;19.20;;;19.60;99.90;;;;;;5031070;28;20967;-34
2022/07/23 08:42:59;;;;;;;20.43;18.37;;;19.70;99.90;;;;;;5031140;28;21023;-34
2022/07/23 08:45:26;;;;;;;21.27;19.40;;;19.80;99.90;;;;;;5030783;28;20464;-34
2022/07/23 08:47:55;;;;;;;23.33;21.30;;;19.90;99.90;;;;;;5030089;28;20441;-34
2022/07/23 08:50:22;;;;;;;21.63;19.63;;;19.90;99.90;;;;;;5030670;28;20421;-34
2022/07/23 08:52:52;;;;;;;22.20;20.40;;;20.00;99.90;;;;;;5030966;28;20809;-34
2022/07/23 08:55:21;;;;;;;21.27;19.17;;;20.00;99.90;;;;;;5030683;28;20928;-34
2022/07/23 08:57:52;;;;;;;21.70;19.87;;;20.10;99.90;;;;;;5030041;28;20479;-34
2022/07/23 09:00:20;;;;;;;18.67;16.97;;;20.30;99.90;;;;;;5030315;28;20444;-34
2022/07/23 09:02:47;;;;;;;22.47;20.30;;;20.40;99.90;;;;;;5030804;28;20425;-34
2022/07/23 09:05:14;;;;;;;25.57;23.43;;;20.40;99.90;;;;;;5030466;28;20580;-33
2022/07/23 09:08:10;;;;;;;22.47;20.57;;;20.40;99.90;;;;;;5030042;28;20997;-34
2022/07/23 09:10:49;;;;;;;24.20;22.10;;;20.40;99.90;;;;;;5030156;28;20412;-34
2022/07/23 09:13:35;;;;;;;21.27;19.37;;;20.40;99.90;;;;;;5030701;28;20413;-34
2022/07/23 09:16:07;;;;;;;23.00;21.10;;;20.40;99.90;;;;;;5030345;28;20425;-34
2022/07/23 09:18:54;;;;;;;22.47;20.27;;;20.50;99.90;;;;;;5029073;28;20425;-34
2022/07/23 09:21:29;;;;;;;25.10;22.90;;;20.60;99.90;;;;;;5040273;28;20826;-34
2022/07/23 09:23:55;;;;;;;20.57;18.87;;;20.60;99.90;;;;;;5030460;28;20806;-34
2022/07/23 09:26:25;;;;;;;22.27;20.47;;;20.80;99.90;;;;;;5030370;28;20467;-34
2022/07/23 09:28:59;;;;;;;23.60;21.57;;;20.90;99.90;;;;;;5029827;28;20525;-34
2022/07/23 09:31:30;;;;;;;24.07;21.97;;;21.10;99.90;;;;;;5029922;28;20417;-34
2022/07/23 09:34:08;;;;;;;20.10;18.40;;;21.30;99.90;;;;;;5030256;28;21054;-34
2022/07/23 09:36:34;;;;;;;23.37;21.37;;;21.50;99.90;;;;;;5029575;28;20424;-34
2022/07/23 09:39:00;;;;;;;21.83;19.87;;;21.70;99.90;;;;;;5029836;28;21058;-34
2022/07/23 09:41:38;;;;;;;21.50;19.80;;;22.00;99.90;;;;;;5028541;28;20200;-34
2022/07/23 09:44:09;;;;;;;22.70;20.70;;;22.20;99.90;;;;;;5029924;28;20793;-34
2022/07/23 09:46:35;;;;;;;19.57;17.93;;;22.30;99.90;;;;;;5029314;28;20504;-34
2022/07/23 09:49:12;;;;;;;22.00;20.00;;;22.30;99.90;;;;;;5029829;28;20503;-34
2022/07/23 09:51:49;;;;;;;21.33;19.63;;;22.10;99.90;;;;;;5029994;28;20174;-34
2022/07/23 09:54:41;;;;;;;20.77;18.80;;;21.80;99.90;;;;;;5029870;28;21246;-34
2022/07/23 09:57:15;;;;;;;16.67;15.17;;;21.60;99.90;;;;;;5028865;28;20950;-34
2022/07/23 09:59:42;;;;;;;15.50;14.07;;;21.70;99.90;;;;;;5030082;28;20440;-34
2022/07/23 10:02:12;;;;;;;13.73;12.43;;;21.90;99.90;;;;;;5029700;28;20800;-34
2022/07/23 10:04:38;;;;;;;14.60;13.30;;;22.10;99.90;;;;;;5029710;28;20421;-34
2022/07/23 10:07:06;;;;;;;16.23;14.73;;;22.30;99.90;;;;;;5028695;28;20468;-34
2022/07/23 10:09:34;;;;;;;15.60;14.30;;;22.20;99.90;;;;;;5029736;28;20459;-34
2022/07/23 10:14:35;;;;;;;11.20;10.20;;;22.30;99.90;;;;;;5029875;28;20957;-34
2022/07/23 10:17:03;;;;;;;9.70;8.70;;;22.30;99.90;;;;;;5027642;28;20440;-34
2022/07/23 10:19:30;;;;;;;9.97;9.10;;;22.40;99.90;;;;;;5028579;28;20429;-34
2022/07/23 10:22:11;;;;;;;11.00;10.10;;;22.50;99.90;;;;;;5040767;28;20425;-34
2022/07/23 10:24:55;;;;;;;8.50;7.70;;;22.60;99.90;;;;;;5022171;28;20425;-34
2022/07/23 10:27:39;;;;;;;6.77;6.27;;;22.70;99.90;;;;;;5035065;28;20416;-34
2022/07/23 10:30:11;;;;;;;8.77;8.07;;;22.80;99.90;;;;;;5048226;28;20412;-34
2022/07/23 10:32:40;;;;;;;9.03;6.70;;;23.00;99.90;;;;;;5049525;28;21049;-34
2022/07/23 10:35:36;;;;;;;7.87;7.20;;;22.90;99.90;;;;;;5048367;28;20408;-34
2022/07/23 10:38:12;;;;;;;8.87;8.10;;;22.80;99.90;;;;;;5048775;28;20736;-34
2022/07/23 10:40:55;;;;;;;8.40;7.67;;;23.00;99.90;;;;;;5048214;28;20958;-34
2022/07/23 10:43:21;;;;;;;8.53;6.00;;;22.90;99.90;;;;;;5049489;28;20499;-34
2022/07/23 10:45:48;;;;;;;8.30;7.57;;;23.10;99.90;;;;;;5051878;28;20543;-34
2022/07/23 10:48:16;;;;;;;6.73;6.23;;;23.20;99.90;;;;;;5052585;28;20409;-34
2022/07/23 10:50:43;;;;;;;7.60;7.00;;;23.20;99.90;;;;;;5052890;28;20465;-34
2022/07/23 10:53:15;;;;;;;8.00;6.80;;;23.30;99.90;;;;;;5053139;28;20784;-34
2022/07/23 10:55:42;;;;;;;6.43;5.93;;;23.40;99.90;;;;;;5052871;28;20439;-34
2022/07/23 10:58:08;;;;;;;7.00;6.40;;;23.50;99.90;;;;;;5052493;28;20466;-34
2022/07/23 11:00:35;;;;;;;8.87;7.60;;;23.60;99.90;;;;;;5052737;28;20432;-34
2022/07/23 11:03:25;;;;;;;8.30;7.60;;;23.70;99.90;;;;;;5053005;28;20189;-34
2022/07/23 11:05:51;;;;;;;7.60;7.00;;;23.70;99.90;;;;;;5052480;28;20467;-34
2022/07/23 11:08:19;;;;;;;7.57;6.90;;;23.80;99.90;;;;;;5052401;28;20923;-34
2022/07/23 11:10:52;;;;;;;7.50;6.90;;;23.80;99.90;;;;;;5052608;28;20870;-34
2022/07/23 11:13:27;;;;;;;10.03;8.50;;;23.80;99.90;;;;;;5037160;28;20982;-34
2022/07/23 11:16:02;;;;;;;6.43;5.93;;;23.90;99.90;;;;;;5037872;28;20447;-34
2022/07/23 11:18:58;;;;;;;9.50;5.90;;;23.90;99.90;;;;;;5045774;28;20412;-34
2022/07/23 11:21:28;;;;;;;7.67;6.93;;;24.00;99.90;;;;;;5045090;28;20507;-34
2022/07/23 11:24:00;;;;;;;8.20;5.57;;;24.10;99.90;;;;;;5042945;28;20416;-34
2022/07/23 11:26:41;;;;;;;6.70;5.53;;;24.20;99.90;;;;;;5037095;28;20496;-34
2022/07/23 11:29:25;;;;;;;4.97;4.50;;;24.20;99.90;;;;;;5042432;28;20407;-34
2022/07/23 11:32:00;;;;;;;5.63;5.13;;;24.30;99.90;;;;;;5045955;28;20826;-34
2022/07/23 11:34:42;;;;;;;6.33;4.33;;;24.40;99.90;;;;;;5047040;28;20463;-34
2022/07/23 11:37:10;;;;;;;5.90;5.30;;;24.40;99.90;;;;;;5045322;28;20775;-34
2022/07/23 11:39:36;;;;;;;4.63;4.23;;;24.40;99.70;;;;;;5043685;28;20910;-34
2022/07/23 11:42:06;;;;;;;5.30;4.80;;;24.30;99.90;;;;;;5043898;28;20474;-34
2022/07/23 11:44:35;;;;;;;7.07;6.47;;;24.40;99.90;;;;;;5043772;28;20417;-34
2022/07/23 11:47:02;;;;;;;5.70;5.20;;;24.40;99.80;;;;;;5030929;28;20468;-34
2022/07/23 11:49:28;;;;;;;6.07;5.47;;;24.40;99.70;;;;;;5031958;28;20436;-34
2022/07/23 11:52:05;;;;;;;6.27;5.67;;;24.40;99.90;;;;;;5031877;28;20423;-34
2022/07/23 11:54:32;;;;;;;4.30;3.90;;;24.50;99.90;;;;;;5032221;28;20508;-34
2022/07/23 11:56:59;;;;;;;4.83;4.40;;;24.60;99.90;;;;;;5030036;28;20425;-34
2022/07/23 11:59:28;;;;;;;4.93;4.40;;;24.70;99.90;;;;;;5031578;28;20436;-34
2022/07/23 12:01:58;;;;;;;4.33;4.03;;;24.80;99.90;;;;;;5031920;28;20467;-34
2022/07/23 12:04:36;;;;;;;5.57;4.97;;;25.00;99.90;;;;;;5031735;28;20426;-34
2022/07/23 12:07:02;;;;;;;5.07;4.67;;;25.10;99.90;;;;;;5030890;28;20477;-34
2022/07/23 12:09:28;;;;;;;4.17;3.77;;;25.20;99.90;;;;;;5031705;28;20884;-34
2022/07/23 12:12:00;;;;;;;5.40;4.30;;;25.20;99.80;;;;;;5031354;28;20190;-34
2022/07/23 12:14:26;;;;;;;4.60;4.13;;;25.20;97.80;;;;;;5031630;28;20249;-34
2022/07/23 12:17:11;;;;;;;4.40;3.90;;;25.20;97.40;;;;;;5030868;28;20429;-34
2022/07/23 12:19:36;;;;;;;4.30;3.90;;;25.20;98.30;;;;;;5030663;28;20194;-34
2022/07/23 12:22:02;;;;;;;3.50;3.20;;;25.20;99.30;;;;;;5042534;28;20483;-34
2022/07/23 12:24:28;;;;;;;3.67;3.37;;;25.20;97.20;;;;;;5029956;28;20185;-34
2022/07/23 12:27:13;;;;;;;3.73;3.20;;;25.00;98.10;;;;;;5030618;28;20469;-36
2022/07/23 12:29:39;;;;;;;10.00;3.90;;;24.90;98.70;;;;;;5031442;28;20991;-36
2022/07/23 12:32:23;;;;;;;3.83;3.53;;;24.90;99.50;;;;;;5031167;28;20449;-35
2022/07/23 12:34:50;;;;;;;4.47;3.67;;;24.90;97.40;;;;;;5031128;28;20205;-35
2022/07/23 12:37:33;;;;;;;7.50;4.33;;;25.00;99.10;;;;;;5030649;28;20429;-35